HAJJ/JIJ METAR and TAF weather

Enter ICAO airport designator
Station Type Date Time Source
HAJJ METAR 2020/03/17 04:30 UTC NOAA

HAJJ 170430Z 09010KT 5000 FU NSC 35/09 Q1013 NOSIG


Station Type Date Time Source
HAJJ Decoded METAR 2020/03/17 04:30 UTC NOAA

Jiggiga, Ethiopia (HAJJ) 09-20N 042-43E 1644M
Mar 17, 2020 - 12:30 AM EDT / 2020.03.17 0430 UTC
Wind: from the E (090 degrees) at 12 MPH (10 KT):0
Visibility: 3 mile(s):0
Weather: smoke
Temperature: 95 F (35 C)
Dew Point: 48 F (9 C)
Relative Humidity: 20%
Pressure (altimeter): 29.91 in. Hg (1013 hPa)
ob: HAJJ 170430Z 09010KT 5000 FU NSC 35/09 Q1013 NOSIG
cycle: 4

Station Type Date Time Source
HAJJ TAF 2021/09/27 12:34 UTC NOAA

TAF HAJJ 270930Z 2712/2818 26005KT 9999 BKN026 SCT090

Example: see airport list